Time;durP1;ratioP1;P1;durP2;ratioP2;P2;SDS_P1;SDS_P2;PMS_P1;PMS_P2;Temp;Humidity;BMP_temperature;BMP_pressure;BME280_temperature;BME280_humidity;BME280_pressure;Samples;Min_cycle;Max_cycle;Signal;HPM_P1;HPM_P2
2022/07/12 00:02:38;;;;;;;1.00;1.00;;;;;;;29.79;34.63;99416.92;1870871;76;28121;-45
2022/07/12 00:05:27;;;;;;;1.00;1.00;;;;;;;29.79;34.65;99420.25;1851975;76;28085;-44
2022/07/12 00:08:15;;;;;;;0.90;0.90;;;;;;;29.78;34.58;99418.03;1843629;74;28208;-44
2022/07/12 00:11:04;;;;;;;1.10;1.00;;;;;;;29.76;34.62;99418.88;1860674;76;28004;-44
2022/07/12 00:13:52;;;;;;;1.05;1.00;;;;;;;29.79;34.59;99421.08;1856146;76;28234;-47
2022/07/12 00:16:40;;;;;;;0.90;0.90;;;;;;;29.79;34.63;99411.39;1850264;76;28043;-46
2022/07/12 00:19:29;;;;;;;0.95;0.95;;;;;;;29.83;34.64;99415.23;1849993;76;28538;-48
2022/07/12 00:22:17;;;;;;;0.90;0.90;;;;;;;29.86;34.56;99410.52;1850857;76;28207;-44
2022/07/12 00:25:07;;;;;;;0.90;0.90;;;;;;;29.90;34.52;99412.16;1854123;76;28054;-48
2022/07/12 00:27:56;;;;;;;0.98;0.98;;;;;;;29.89;34.55;99416.05;1849831;76;28025;-44
2022/07/12 00:30:45;;;;;;;0.90;0.90;;;;;;;29.88;34.68;99419.92;1850162;76;28108;-44
2022/07/12 00:33:35;;;;;;;0.80;0.80;;;;;;;29.92;34.60;99424.61;1852330;76;28616;-44
2022/07/12 00:36:23;;;;;;;1.10;1.00;;;;;;;29.92;34.54;99423.80;1853299;76;28024;-46
2022/07/12 00:39:12;;;;;;;1.40;0.80;;;;;;;29.85;34.68;99422.70;1850228;76;28181;-47
2022/07/12 00:42:01;;;;;;;0.85;0.85;;;;;;;29.85;34.68;99422.70;1868450;76;28114;-50
2022/07/12 00:44:50;;;;;;;0.90;0.90;;;;;;;29.88;34.64;99430.45;1839900;77;28240;-47
2022/07/12 00:47:49;;;;;;;0.93;0.93;;;;;;;29.86;34.68;99432.68;1851932;76;28067;-47
2022/07/12 00:50:33;;;;;;;1.17;1.07;;;;;;;29.86;34.73;99429.08;1842566;76;28124;-46
2022/07/12 00:53:24;;;;;;;2.00;1.00;;;;;;;29.87;34.73;99422.44;1860557;76;28074;-44
2022/07/12 00:56:14;;;;;;;0.90;0.90;;;;;;;29.89;34.70;99430.73;1858159;76;28056;-45
2022/07/12 00:59:03;;;;;;;1.50;0.90;;;;;;;29.90;34.69;99431.54;1853028;76;28075;-45
2022/07/12 01:01:51;;;;;;;1.00;1.00;;;;;;;29.91;34.69;99425.73;1842711;76;28150;-44
2022/07/12 01:04:40;;;;;;;1.50;1.00;;;;;;;29.92;34.77;99430.73;1839977;77;28159;-44
2022/07/12 01:07:29;;;;;;;0.98;0.98;;;;;;;29.90;34.75;99439.30;1857897;76;28071;-45
2022/07/12 01:10:18;;;;;;;0.97;0.90;;;;;;;29.90;34.78;99430.98;1839920;77;28120;-46
2022/07/12 01:13:07;;;;;;;1.00;1.00;;;;;;;29.90;34.81;99438.47;1867507;76;28012;-47
2022/07/12 01:15:55;;;;;;;0.98;0.98;;;;;;;29.90;34.85;99433.76;1850459;76;28139;-47
2022/07/12 01:18:44;;;;;;;1.00;1.00;;;;;;;29.86;34.93;99429.91;1854552;76;28112;-43
2022/07/12 01:21:36;;;;;;;1.25;1.07;;;;;;;29.86;34.87;99433.23;1850920;76;28056;-44
2022/07/12 01:24:24;;;;;;;0.95;0.95;;;;;;;29.87;34.94;99431.55;1856376;75;28207;-44
2022/07/12 01:27:14;;;;;;;1.07;1.07;;;;;;;29.85;34.93;99428.23;1880032;75;28174;-46
2022/07/12 01:30:04;;;;;;;1.05;0.95;;;;;;;29.84;35.05;99436.84;1885965;75;32117;-44
2022/07/12 01:32:53;;;;;;;1.50;1.00;;;;;;;29.85;35.03;99428.23;1880601;75;28167;-45
2022/07/12 01:35:42;;;;;;;1.20;1.20;;;;;;;29.81;35.06;99432.70;1880348;75;28211;-46
2022/07/12 01:38:31;;;;;;;1.10;1.00;;;;;;;29.87;34.95;99437.09;1880811;75;30172;-45
2022/07/12 01:41:21;;;;;;;1.00;1.00;;;;;;;29.90;34.96;99439.84;1885141;75;28149;-46
2022/07/12 01:44:10;;;;;;;3.00;1.10;;;;;;;29.91;34.98;99443.74;1879886;75;28099;-47
2022/07/12 01:46:59;;;;;;;1.10;1.10;;;;;;;29.90;34.96;99443.45;1880006;75;28258;-45
2022/07/12 01:49:48;;;;;;;0.93;0.90;;;;;;;29.88;35.02;99446.23;1882074;75;28174;-45
2022/07/12 01:52:38;;;;;;;0.90;0.90;;;;;;;29.86;35.05;99448.46;1883570;75;28201;-47
2022/07/12 01:55:26;;;;;;;1.22;1.12;;;;;;;29.88;35.04;99455.38;1880318;75;28094;-45
2022/07/12 01:58:16;;;;;;;1.00;1.00;;;;;;;29.86;35.10;99453.45;1880251;75;28300;-47
2022/07/12 02:01:05;;;;;;;1.02;1.02;;;;;;;29.85;35.09;99462.86;1883326;75;28215;-45
2022/07/12 02:03:54;;;;;;;0.95;0.95;;;;;;;29.87;35.16;99466.75;1883050;75;28156;-44
2022/07/12 02:06:44;;;;;;;1.05;1.00;;;;;;;29.87;35.14;99469.52;1879961;75;28174;-45
2022/07/12 02:09:33;;;;;;;0.90;0.90;;;;;;;29.88;35.11;99471.99;1880378;75;28195;-46
2022/07/12 02:12:21;;;;;;;1.90;1.30;;;;;;;29.85;35.17;99472.55;1884409;75;28197;-47
2022/07/12 02:15:11;;;;;;;2.30;1.10;;;;;;;29.85;35.17;99473.13;1881492;75;28176;-43
2022/07/12 02:17:59;;;;;;;1.00;1.00;;;;;;;29.87;35.12;99475.86;1906022;73;28137;-44
2022/07/12 02:20:48;;;;;;;1.00;1.00;;;;;;;29.87;35.16;99470.91;1870708;75;28236;-47
2022/07/12 02:23:36;;;;;;;1.00;1.00;;;;;;;29.86;35.02;99468.69;1885661;75;28214;-43
2022/07/12 02:26:25;;;;;;;1.00;1.00;;;;;;;29.86;34.88;99477.55;1873860;75;28180;-46
2022/07/12 02:29:13;;;;;;;0.95;0.95;;;;;;;29.87;34.94;99478.63;1860541;76;28709;-45
2022/07/12 02:32:02;;;;;;;0.90;0.90;;;;;;;29.89;34.84;99483.36;1859342;76;28571;-44
2022/07/12 02:34:50;;;;;;;0.82;0.82;;;;;;;29.89;34.85;99479.75;1853658;76;28027;-45
2022/07/12 02:37:38;;;;;;;0.90;0.90;;;;;;;29.87;34.79;99479.22;1849868;76;28196;-44
2022/07/12 02:43:35;;;;;;;0.90;0.90;;;;;;;29.86;34.75;99477.55;1850057;76;28159;-44
2022/07/12 02:46:23;;;;;;;1.20;1.10;;;;;;;29.78;34.92;99483.10;1855105;76;28249;-43
2022/07/12 02:49:11;;;;;;;1.00;1.00;;;;;;;29.82;34.84;99477.30;1860630;76;28107;-43
2022/07/12 02:52:00;;;;;;;1.07;1.07;;;;;;;29.81;34.89;99479.78;1861076;76;28187;-50
2022/07/12 02:54:48;;;;;;;1.10;1.10;;;;;;;29.84;34.90;99485.31;1859410;76;28139;-49
2022/07/12 02:57:36;;;;;;;0.90;0.90;;;;;;;29.85;34.93;99480.86;1853448;76;28035;-49
2022/07/12 03:00:24;;;;;;;1.00;1.00;;;;;;;29.83;34.97;99479.48;1849857;76;28069;-52
2022/07/12 03:03:14;;;;;;;0.90;0.90;;;;;;;29.79;35.00;99483.94;1848330;76;28213;-48
2022/07/12 03:06:02;;;;;;;1.17;1.17;;;;;;;29.75;35.08;99482.82;1839933;77;28211;-49
2022/07/12 03:08:51;;;;;;;0.88;0.88;;;;;;;29.76;35.01;99481.17;1853758;76;28569;-51
2022/07/12 03:11:39;;;;;;;1.00;1.00;;;;;;;29.73;35.08;99481.73;1849925;76;28157;-52
2022/07/12 03:14:27;;;;;;;0.93;0.93;;;;;;;29.77;34.99;99481.46;1850366;76;38414;-53
2022/07/12 03:17:16;;;;;;;1.40;1.02;;;;;;;29.79;34.92;99488.09;1870993;76;28073;-49
2022/07/12 03:20:08;;;;;;;1.20;1.10;;;;;;;29.73;34.90;99491.42;1852499;76;38356;-49
2022/07/12 03:22:56;;;;;;;1.10;1.10;;;;;;;29.70;34.96;99491.14;1849737;76;28249;-47
2022/07/12 03:25:45;;;;;;;1.00;1.00;;;;;;;29.72;34.88;99493.06;1850056;76;28209;-51
2022/07/12 03:28:33;;;;;;;1.00;1.00;;;;;;;29.74;34.85;99487.52;1853539;76;28168;-52
2022/07/12 03:31:22;;;;;;;1.05;1.00;;;;;;;29.69;34.95;99495.00;1851696;76;28018;-53
2022/07/12 03:34:10;;;;;;;1.10;1.10;;;;;;;29.69;34.93;99492.23;1844013;76;28146;-50
2022/07/12 03:36:58;;;;;;;1.10;1.10;;;;;;;29.73;34.83;99497.51;1860555;76;28065;-52
2022/07/12 03:39:47;;;;;;;1.05;1.05;;;;;;;29.70;34.84;99500.83;1855563;76;28049;-51
2022/07/12 03:42:36;;;;;;;0.95;0.95;;;;;;;29.70;34.86;99500.28;1850098;76;32014;-50
2022/07/12 03:45:24;;;;;;;1.02;1.00;;;;;;;29.74;34.79;99509.67;1849864;76;28157;-48
2022/07/12 03:48:12;;;;;;;1.02;1.02;;;;;;;29.70;34.86;99509.97;1871270;76;28057;-51
2022/07/12 03:51:01;;;;;;;1.15;1.10;;;;;;;29.72;34.87;99513.83;1854009;76;28043;-52
2022/07/12 03:53:49;;;;;;;0.97;0.97;;;;;;;29.74;34.85;99515.77;1849926;76;28147;-50
2022/07/12 03:59:45;;;;;;;1.10;1.10;;;;;;;29.76;34.85;99524.09;1861147;76;28095;-51
2022/07/12 04:02:34;;;;;;;1.00;1.00;;;;;;;29.71;34.88;99519.92;1854578;76;28171;-53
2022/07/12 04:05:25;;;;;;;1.10;1.10;;;;;;;29.70;34.93;99516.06;1851037;76;28112;-52
2022/07/12 04:08:12;;;;;;;1.20;1.00;;;;;;;29.67;34.98;99520.22;1850118;76;28039;-54
2022/07/12 04:11:01;;;;;;;1.40;1.20;;;;;;;29.70;34.97;99527.97;1849507;76;28128;-50
2022/07/12 04:13:50;;;;;;;1.07;1.07;;;;;;;29.73;34.94;99530.73;1855662;76;28090;-51
2022/07/12 04:16:38;;;;;;;1.40;1.10;;;;;;;29.74;34.86;99531.83;1850326;76;28100;-53
2022/07/12 04:19:31;;;;;;;1.10;1.10;;;;;;;29.73;34.91;99535.73;1844957;76;28214;-53
2022/07/12 04:22:20;;;;;;;1.50;1.30;;;;;;;29.76;34.91;99539.88;1860746;76;28206;-54
2022/07/12 04:25:09;;;;;;;1.00;1.00;;;;;;;29.78;34.81;99543.22;1854989;76;28071;-54
2022/07/12 04:27:57;;;;;;;1.00;1.00;;;;;;;29.77;34.80;99547.09;1850294;76;28267;-49
2022/07/12 04:30:46;;;;;;;1.20;1.15;;;;;;;29.78;34.82;99549.56;1850191;76;28196;-49
2022/07/12 04:33:35;;;;;;;1.05;1.05;;;;;;;29.79;34.78;99544.86;1850780;76;28647;-49
2022/07/12 04:36:24;;;;;;;1.55;0.90;;;;;;;29.78;34.77;99549.56;1855111;76;28214;-52
2022/07/12 04:39:13;;;;;;;1.02;1.02;;;;;;;29.77;34.79;99550.69;1850267;76;28065;-50
2022/07/12 04:42:02;;;;;;;1.07;1.05;;;;;;;29.79;34.69;99549.02;1845873;76;28189;-50
2022/07/12 04:44:51;;;;;;;1.00;1.00;;;;;;;29.75;34.75;99547.34;1859953;76;28075;-52
2022/07/12 04:47:39;;;;;;;1.10;1.05;;;;;;;29.76;34.75;99548.19;1853455;76;28057;-54
2022/07/12 04:50:28;;;;;;;0.90;0.90;;;;;;;29.74;34.74;99558.13;1849906;76;28216;-49
2022/07/12 04:53:16;;;;;;;1.17;1.17;;;;;;;29.71;34.81;99561.45;1850362;76;28148;-50
2022/07/12 04:56:05;;;;;;;1.00;1.00;;;;;;;29.70;34.79;99554.82;1852459;76;28221;-49
2022/07/12 04:58:53;;;;;;;1.05;1.00;;;;;;;29.73;34.72;99559.27;1852958;76;28548;-51
2022/07/12 05:01:42;;;;;;;1.00;1.00;;;;;;;29.79;34.63;99560.93;1850018;76;28143;-47
2022/07/12 05:04:34;;;;;;;1.00;1.00;;;;;;;29.76;34.68;99560.09;1848328;76;28237;-49
2022/07/12 05:07:23;;;;;;;1.27;1.02;;;;;;;29.70;34.75;99559.81;1854828;76;28198;-51
2022/07/12 05:10:11;;;;;;;1.02;0.90;;;;;;;29.66;34.80;99565.64;1850674;76;28569;-49
2022/07/12 05:12:59;;;;;;;1.27;1.10;;;;;;;29.67;34.83;99564.52;1850403;76;28019;-50
2022/07/12 05:15:48;;;;;;;1.20;1.10;;;;;;;29.68;34.80;99570.34;1871301;76;28086;-53
2022/07/12 05:18:37;;;;;;;1.20;1.00;;;;;;;29.67;34.79;99573.38;1854762;76;28162;-52
2022/07/12 05:21:25;;;;;;;1.02;1.02;;;;;;;29.71;34.73;99580.84;1861730;76;28167;-52
2022/07/12 05:24:14;;;;;;;0.95;0.95;;;;;;;29.76;34.58;99574.48;1864663;76;28149;-51
2022/07/12 05:27:04;;;;;;;1.00;1.00;;;;;;;29.74;34.63;99573.36;1851964;76;28095;-49
2022/07/12 05:29:52;;;;;;;1.00;1.00;;;;;;;29.70;34.69;99583.34;1853510;76;28119;-49
2022/07/12 05:32:40;;;;;;;1.00;1.00;;;;;;;29.72;34.67;99580.29;1849478;76;28071;-48
2022/07/12 05:35:29;;;;;;;0.90;0.90;;;;;;;29.68;34.70;99582.80;1849768;76;28126;-51
2022/07/12 05:38:17;;;;;;;1.10;1.10;;;;;;;29.67;34.61;99583.90;1852762;76;28172;-53
2022/07/12 05:41:06;;;;;;;0.90;0.90;;;;;;;29.70;34.45;99592.20;1851641;76;28324;-49
2022/07/12 05:43:54;;;;;;;1.00;0.90;;;;;;;29.74;34.46;99592.75;1864032;76;28152;-50
2022/07/12 05:46:43;;;;;;;1.15;1.15;;;;;;;29.70;34.45;99587.50;1860653;76;28130;-52
2022/07/12 05:49:32;;;;;;;1.10;1.10;;;;;;;29.72;34.46;99587.21;1839331;77;28124;-53
2022/07/12 05:55:26;;;;;;;1.10;1.10;;;;;;;29.73;34.34;99583.34;1849613;76;28499;-52
2022/07/12 05:58:14;;;;;;;0.90;0.90;;;;;;;29.66;34.33;99582.80;1849883;76;28096;-52
2022/07/12 06:01:02;;;;;;;1.07;1.07;;;;;;;29.57;33.86;99579.75;1852226;76;28162;-52
2022/07/12 06:03:51;;;;;;;0.90;0.90;;;;;;;29.53;33.61;99585.58;1852466;76;28216;-53
2022/07/12 06:06:39;;;;;;;1.27;1.17;;;;;;;29.47;33.61;99589.47;1849459;76;28118;-50
2022/07/12 06:09:29;;;;;;;0.90;0.90;;;;;;;29.37;33.71;99586.70;1849575;76;28191;-51
2022/07/12 06:12:17;;;;;;;1.90;1.17;;;;;;;29.32;33.79;99587.53;1870864;76;28056;-51
2022/07/12 06:15:06;;;;;;;1.12;1.10;;;;;;;29.32;33.81;99598.59;1850659;76;28092;-47
2022/07/12 06:17:55;;;;;;;0.90;0.90;;;;;;;29.29;33.94;99596.95;1865182;76;28155;-52
2022/07/12 06:20:43;;;;;;;1.10;1.10;;;;;;;29.29;34.07;99600.52;1839810;76;28112;-49
2022/07/12 06:23:31;;;;;;;1.03;1.03;;;;;;;29.28;34.10;99600.81;1855131;76;28199;-49
2022/07/12 06:26:20;;;;;;;1.40;1.30;;;;;;;29.28;34.11;99600.27;1839403;77;28187;-52
2022/07/12 06:29:09;;;;;;;1.07;1.05;;;;;;;29.26;34.15;99602.48;1860817;76;28484;-51
2022/07/12 06:31:57;;;;;;;1.17;1.17;;;;;;;29.19;34.19;99594.17;1890116;75;28193;-48
2022/07/12 06:34:46;;;;;;;1.62;1.10;;;;;;;29.24;34.23;99604.67;1887422;75;28200;-49
2022/07/12 06:37:34;;;;;;;1.10;1.10;;;;;;;29.19;34.43;99600.55;1891465;75;28174;-50
2022/07/12 06:40:23;;;;;;;1.00;0.98;;;;;;;29.21;34.49;99598.88;1872402;75;28258;-50
2022/07/12 06:43:13;;;;;;;1.00;1.00;;;;;;;29.20;34.47;99604.11;1883256;75;28222;-51
2022/07/12 06:46:02;;;;;;;2.30;1.00;;;;;;;29.18;34.53;99609.94;1865175;75;28620;-49
2022/07/12 06:48:51;;;;;;;1.77;1.20;;;;;;;29.22;34.55;99608.27;1898284;73;28179;-51
2022/07/12 06:51:40;;;;;;;1.10;1.00;;;;;;;29.22;34.32;99600.55;1900004;75;28389;-50
2022/07/12 06:54:28;;;;;;;1.10;1.02;;;;;;;29.24;34.19;99605.25;1872190;74;28209;-52
2022/07/12 06:57:16;;;;;;;2.35;1.20;;;;;;;29.11;33.99;99593.29;1881187;75;32064;-58
2022/07/12 07:00:07;;;;;;;1.40;1.30;;;;;;;29.19;34.02;99601.09;1879795;75;28163;-55
2022/07/12 07:02:56;;;;;;;1.70;1.20;;;;;;;29.21;34.42;99594.72;1879767;75;28202;-53
2022/07/12 07:05:44;;;;;;;1.20;1.10;;;;;;;29.25;34.35;99597.20;1901900;75;28118;-53
2022/07/12 07:08:33;;;;;;;2.70;1.10;;;;;;;29.31;34.31;99597.50;1880691;75;28097;-53
2022/07/12 07:11:21;;;;;;;2.10;1.20;;;;;;;29.37;34.37;99588.92;1880136;75;38325;-54
2022/07/12 07:14:10;;;;;;;1.10;0.90;;;;;;;29.37;34.38;99588.92;1881028;75;32190;-53
2022/07/12 07:16:59;;;;;;;1.32;1.00;;;;;;;29.41;34.42;99591.40;1873683;73;28328;-53
2022/07/12 07:19:48;;;;;;;1.05;1.00;;;;;;;29.40;34.48;99597.22;1874127;73;30199;-52
2022/07/12 07:22:37;;;;;;;1.40;0.90;;;;;;;29.42;34.46;99586.70;1894675;75;28105;-55
2022/07/12 07:25:25;;;;;;;1.67;1.15;;;;;;;29.43;34.48;99587.53;1882389;75;28154;-49
2022/07/12 07:28:13;;;;;;;1.10;1.10;;;;;;;29.37;34.58;99583.38;1882802;75;28203;-52
2022/07/12 07:31:02;;;;;;;1.10;1.00;;;;;;;29.39;34.66;99587.24;1880009;75;28245;-54
2022/07/12 07:33:50;;;;;;;1.10;0.90;;;;;;;29.34;34.72;99589.46;1878301;75;28298;-54
2022/07/12 07:36:38;;;;;;;0.93;0.93;;;;;;;29.35;34.73;99590.30;1887291;75;28093;-55
2022/07/12 07:39:27;;;;;;;0.93;0.93;;;;;;;29.36;34.77;99580.33;1881480;75;28118;-52
2022/07/12 07:42:15;;;;;;;1.10;1.00;;;;;;;29.38;34.77;99589.75;1879889;75;28123;-54
2022/07/12 07:45:06;;;;;;;1.27;1.17;;;;;;;29.42;34.74;99592.23;1880572;75;31239;-50
2022/07/12 07:47:54;;;;;;;1.10;1.10;;;;;;;29.42;34.74;99585.31;1885846;75;28058;-56
2022/07/12 07:50:43;;;;;;;1.07;1.00;;;;;;;29.46;34.78;99592.49;1880297;75;28187;-56
2022/07/12 07:53:32;;;;;;;0.93;0.90;;;;;;;29.44;34.77;99585.86;1897012;75;28234;-54
2022/07/12 07:56:21;;;;;;;1.10;1.10;;;;;;;29.46;34.82;99582.27;1869552;76;28296;-53
2022/07/12 07:59:09;;;;;;;0.90;0.90;;;;;;;29.45;34.85;99577.85;1884303;75;28217;-55
2022/07/12 08:01:57;;;;;;;1.05;0.98;;;;;;;29.48;34.84;99577.85;1871042;75;28140;-55
2022/07/12 08:04:46;;;;;;;1.30;1.00;;;;;;;29.48;34.87;99577.27;1873211;75;33626;-55
2022/07/12 08:07:34;;;;;;;0.90;0.90;;;;;;;29.47;34.92;99575.63;1882349;75;28251;-53
2022/07/12 08:10:23;;;;;;;0.90;0.90;;;;;;;29.48;34.94;99575.89;1869602;76;28701;-53
2022/07/12 08:13:12;;;;;;;1.07;0.90;;;;;;;29.49;34.92;99570.64;1891489;75;28218;-49
2022/07/12 08:16:00;;;;;;;1.20;1.10;;;;;;;29.48;34.92;99568.16;1891353;75;28110;-53
2022/07/12 08:18:48;;;;;;;1.00;1.00;;;;;;;29.49;34.94;99568.42;1887478;75;28090;-52
2022/07/12 08:21:37;;;;;;;1.12;0.90;;;;;;;29.50;34.96;99562.59;1881820;75;28128;-52
2022/07/12 08:24:25;;;;;;;0.78;0.78;;;;;;;29.49;34.99;99565.66;1880027;75;28136;-52
2022/07/12 08:27:13;;;;;;;1.50;1.00;;;;;;;29.53;34.97;99564.81;1880417;75;28203;-51
2022/07/12 08:30:02;;;;;;;2.50;0.90;;;;;;;29.55;34.95;99568.67;1884967;75;28247;-52
2022/07/12 08:32:50;;;;;;;0.93;0.93;;;;;;;29.56;34.92;99573.12;1880560;75;35222;-52
2022/07/12 08:35:39;;;;;;;1.00;1.00;;;;;;;29.56;34.95;99576.72;1880015;75;28209;-52
2022/07/12 08:38:27;;;;;;;0.80;0.80;;;;;;;29.57;34.98;99574.79;1881754;75;28183;-51
2022/07/12 08:41:16;;;;;;;0.83;0.83;;;;;;;29.57;34.98;99576.17;1884330;75;28073;-55
2022/07/12 08:44:05;;;;;;;0.80;0.80;;;;;;;29.57;35.02;99571.45;1871045;75;28212;-54
2022/07/12 08:46:53;;;;;;;1.70;0.90;;;;;;;29.58;35.02;99576.44;1891124;75;28059;-54
2022/07/12 08:49:43;;;;;;;0.87;0.87;;;;;;;29.58;35.04;99577.81;1888595;75;28158;-53
2022/07/12 08:52:31;;;;;;;1.22;0.90;;;;;;;29.57;35.06;99576.98;1883240;75;28169;-53
2022/07/12 08:55:25;;;;;;;0.82;0.82;;;;;;;29.61;35.03;99571.73;1880122;75;28218;-56
2022/07/12 08:58:18;;;;;;;1.00;1.00;;;;;;;29.61;35.06;99568.42;1880328;75;38010;-54
2022/07/12 09:01:06;;;;;;;0.98;0.98;;;;;;;29.60;35.08;99558.98;1881291;75;28182;-53
2022/07/12 09:04:12;;;;;;;1.00;0.90;;;;;;;29.60;35.09;99557.60;1870044;75;28217;-53
2022/07/12 09:07:04;;;;;;;2.05;1.10;;;;;;;29.60;35.11;99559.82;1880817;75;28159;-55
2022/07/12 09:09:52;;;;;;;0.82;0.82;;;;;;;29.60;35.15;99560.38;1880306;75;28122;-53
2022/07/12 09:12:43;;;;;;;1.62;0.90;;;;;;;29.61;35.15;99558.73;1901731;75;28066;-51
2022/07/12 09:15:32;;;;;;;0.93;0.93;;;;;;;29.61;35.14;99555.96;1884114;75;28175;-51
2022/07/12 09:18:28;;;;;;;0.80;0.80;;;;;;;29.64;35.17;99557.34;1882218;75;28117;-52
2022/07/12 09:21:30;;;;;;;1.90;0.80;;;;;;;29.65;35.16;99561.20;1893921;75;28206;-52
2022/07/12 09:24:21;;;;;;;0.85;0.85;;;;;;;29.62;35.19;99564.52;1897176;75;28147;-53
2022/07/12 09:27:09;;;;;;;1.35;0.90;;;;;;;29.63;35.21;99552.35;1880153;75;28132;-55
2022/07/12 09:29:58;;;;;;;0.90;0.90;;;;;;;29.63;35.27;99554.28;1885288;75;28187;-51
2022/07/12 09:36:17;;;;;;;0.80;0.80;;;;;;;29.61;35.35;99546.27;1851699;76;28057;-53
2022/07/12 09:39:02;;;;;;;0.80;0.80;;;;;;;29.56;35.44;99549.59;1849826;76;28021;-54
2022/07/12 09:41:53;;;;;;;0.80;0.80;;;;;;;29.58;35.46;99547.36;1850136;76;28086;-52
2022/07/12 09:44:43;;;;;;;1.70;0.82;;;;;;;29.61;35.42;99543.50;1852988;76;28094;-53
2022/07/12 09:47:34;;;;;;;1.17;0.80;;;;;;;29.62;35.44;99545.14;1852651;76;28081;-54
2022/07/12 09:50:22;;;;;;;0.90;0.90;;;;;;;29.64;35.42;99545.69;1850062;76;28079;-51
2022/07/12 09:53:13;;;;;;;0.80;0.80;;;;;;;29.64;35.41;99547.07;1848647;76;28140;-52
2022/07/12 09:56:05;;;;;;;1.07;0.90;;;;;;;29.63;35.42;99541.28;1857551;76;28021;-53
2022/07/12 09:58:55;;;;;;;1.00;1.00;;;;;;;29.64;35.46;99531.84;1852378;76;38070;-57
2022/07/12 10:01:45;;;;;;;0.82;0.82;;;;;;;29.64;35.47;99540.15;1850013;76;28076;-54
2022/07/12 10:04:34;;;;;;;0.80;0.80;;;;;;;29.67;35.46;99540.15;1848271;76;28170;-56
2022/07/12 10:07:24;;;;;;;0.80;0.80;;;;;;;29.64;35.47;99538.77;1839896;77;28283;-53
2022/07/12 10:10:12;;;;;;;0.93;0.93;;;;;;;29.65;35.48;99543.20;1850994;76;28051;-53
2022/07/12 10:13:01;;;;;;;0.85;0.85;;;;;;;29.69;35.45;99540.14;1844538;76;28103;-56
2022/07/12 10:15:51;;;;;;;0.70;0.70;;;;;;;29.69;35.46;99537.38;1860996;76;28043;-53
2022/07/12 10:18:40;;;;;;;1.20;0.80;;;;;;;29.71;35.45;99540.69;1855326;76;28011;-54
2022/07/12 10:21:28;;;;;;;1.00;1.00;;;;;;;29.69;35.45;99530.45;1861562;76;28180;-54
2022/07/12 10:24:35;;;;;;;1.00;1.00;;;;;;;29.69;35.50;99527.69;1860584;76;28083;-52
2022/07/12 10:27:28;;;;;;;0.80;0.80;;;;;;;29.73;35.43;99526.03;1842274;76;28210;-53
2022/07/12 10:30:18;;;;;;;0.70;0.70;;;;;;;29.70;35.54;99527.13;1852789;76;28081;-51
2022/07/12 10:33:10;;;;;;;0.80;0.80;;;;;;;29.70;35.56;99529.91;1853057;76;28218;-52
2022/07/12 10:36:06;;;;;;;0.80;0.80;;;;;;;29.70;35.54;99520.21;1849873;75;28028;-53
2022/07/12 10:39:13;;;;;;;0.80;0.80;;;;;;;29.70;35.59;99522.44;1849895;76;28077;-52
2022/07/12 10:42:15;;;;;;;0.75;0.75;;;;;;;29.70;35.62;99518.83;1849858;76;28130;-54
2022/07/12 10:45:17;;;;;;;1.33;0.87;;;;;;;29.67;35.67;99513.30;1850747;76;28555;-56
2022/07/12 10:48:10;;;;;;;0.83;0.83;;;;;;;29.66;35.66;99510.81;1857338;76;28064;-50
2022/07/12 10:50:59;;;;;;;0.80;0.80;;;;;;;29.66;35.63;99511.66;1871061;76;28026;-55
2022/07/12 10:53:50;;;;;;;0.90;0.90;;;;;;;29.65;35.65;99503.06;1842389;76;28164;-55
2022/07/12 10:56:41;;;;;;;0.73;0.73;;;;;;;29.68;35.65;99501.12;1861017;76;28120;-54
2022/07/12 10:59:32;;;;;;;0.80;0.80;;;;;;;29.70;35.64;99498.89;1857040;76;28058;-56
2022/07/12 11:02:22;;;;;;;0.75;0.75;;;;;;;29.72;35.62;99499.98;1852247;76;27979;-53
2022/07/12 11:05:11;;;;;;;0.80;0.80;;;;;;;29.74;35.66;99503.30;1862241;76;28129;-52
2022/07/12 11:07:59;;;;;;;1.00;0.93;;;;;;;29.73;35.59;99496.96;1860544;76;38324;-54
2022/07/12 11:10:57;;;;;;;0.82;0.82;;;;;;;29.71;35.66;99496.38;1858317;76;28064;-54
2022/07/12 11:13:45;;;;;;;0.90;0.90;;;;;;;29.72;35.65;99498.06;1856340;76;28189;-55
2022/07/12 11:16:33;;;;;;;0.90;0.90;;;;;;;29.69;35.60;99489.47;1860995;76;28077;-54
2022/07/12 11:19:24;;;;;;;1.55;0.90;;;;;;;29.74;35.65;99483.92;1860714;76;28033;-51
2022/07/12 11:22:13;;;;;;;0.80;0.80;;;;;;;29.73;35.61;99481.73;1858879;76;28062;-50
2022/07/12 11:25:02;;;;;;;0.82;0.82;;;;;;;29.74;35.62;99471.45;1853799;76;28032;-53
2022/07/12 11:27:50;;;;;;;0.60;0.60;;;;;;;29.73;35.63;99477.58;1850477;76;30933;-53
2022/07/12 11:30:40;;;;;;;0.68;0.68;;;;;;;29.74;35.64;99472.84;1847121;76;28090;-52
2022/07/12 11:33:34;;;;;;;0.80;0.80;;;;;;;29.76;35.63;99471.48;1858245;76;28057;-53
2022/07/12 11:36:27;;;;;;;0.70;0.70;;;;;;;29.78;35.59;99471.22;1853915;76;28064;-53
2022/07/12 11:39:16;;;;;;;0.72;0.72;;;;;;;29.75;35.67;99468.42;1861542;76;28521;-55
2022/07/12 11:42:06;;;;;;;0.70;0.70;;;;;;;29.76;35.64;99465.11;1865032;76;28121;-53
2022/07/12 11:44:54;;;;;;;0.70;0.70;;;;;;;29.78;35.63;99472.61;1851601;76;28194;-51
2022/07/12 11:47:43;;;;;;;0.80;0.80;;;;;;;29.76;35.61;99460.41;1853935;76;27996;-54
2022/07/12 11:50:34;;;;;;;0.60;0.60;;;;;;;29.78;35.57;99456.80;1841810;76;28125;-54
2022/07/12 11:53:25;;;;;;;0.72;0.72;;;;;;;29.78;35.61;99454.61;1860795;76;28130;-54
2022/07/12 11:56:13;;;;;;;0.80;0.80;;;;;;;29.76;35.64;99452.09;1858842;76;32989;-55
2022/07/12 11:59:02;;;;;;;0.80;0.80;;;;;;;29.77;35.63;99451.00;1853560;76;28078;-54
2022/07/12 12:02:07;;;;;;;0.80;0.70;;;;;;;29.79;35.60;99449.33;1850158;76;28307;-54
2022/07/12 12:04:57;;;;;;;0.72;0.72;;;;;;;29.80;35.63;99449.03;1870853;76;28029;-54
2022/07/12 12:07:45;;;;;;;0.78;0.78;;;;;;;29.75;35.64;99449.05;1865678;76;28294;-53
2022/07/12 12:10:35;;;;;;;0.57;0.57;;;;;;;29.77;35.67;99442.69;1851246;76;28547;-52
2022/07/12 12:13:25;;;;;;;0.70;0.70;;;;;;;29.79;35.68;99439.63;1850592;76;28091;-54
2022/07/12 12:16:13;;;;;;;0.77;0.77;;;;;;;29.79;35.61;99434.92;1865627;76;28120;-52
2022/07/12 12:19:02;;;;;;;0.80;0.80;;;;;;;29.79;35.61;99441.84;1868167;76;27991;-54
2022/07/12 12:21:51;;;;;;;0.70;0.70;;;;;;;29.78;35.68;99436.02;1839813;77;28179;-55
2022/07/12 12:24:39;;;;;;;0.90;0.90;;;;;;;29.81;35.65;99424.39;1860908;76;28152;-51
2022/07/12 12:27:28;;;;;;;0.68;0.68;;;;;;;29.80;35.64;99431.61;1861035;76;28047;-51
2022/07/12 12:30:18;;;;;;;0.70;0.70;;;;;;;29.80;35.66;99421.34;1858719;76;28032;-51
2022/07/12 12:33:07;;;;;;;0.80;0.80;;;;;;;29.81;35.65;99426.33;1853527;76;28134;-52
2022/07/12 12:35:56;;;;;;;0.75;0.75;;;;;;;29.80;35.67;99429.64;1850016;75;28095;-52
2022/07/12 12:38:45;;;;;;;0.80;0.80;;;;;;;29.79;35.67;99414.70;1849639;76;28134;-55
2022/07/12 12:41:42;;;;;;;0.80;0.80;;;;;;;29.78;35.71;99406.95;1851748;76;28090;-52
2022/07/12 12:44:35;;;;;;;0.55;0.55;;;;;;;29.79;35.71;99412.77;1854211;76;27976;-53
2022/07/12 12:47:33;;;;;;;0.68;0.68;;;;;;;29.78;35.71;99411.10;1839241;76;28208;-54
2022/07/12 12:50:46;;;;;;;0.70;0.70;;;;;;;29.78;35.70;99411.10;1839349;77;28172;-53
2022/07/12 12:53:41;;;;;;;0.70;0.70;;;;;;;29.78;35.76;99412.48;1860569;76;28258;-51
2022/07/12 12:56:25;;;;;;;0.60;0.60;;;;;;;29.76;35.82;99405.58;1862111;76;28077;-54
2022/07/12 12:59:14;;;;;;;0.60;0.60;;;;;;;29.77;35.79;99408.08;1853645;76;28162;-54
2022/07/12 13:02:04;;;;;;;0.70;0.70;;;;;;;29.78;35.76;99400.03;1850569;76;28009;-52
2022/07/12 13:04:52;;;;;;;0.70;0.68;;;;;;;29.81;35.71;99404.17;1843777;76;28265;-54
2022/07/12 13:07:40;;;;;;;0.70;0.70;;;;;;;29.83;35.69;99394.47;1859126;76;28034;-53
2022/07/12 13:10:29;;;;;;;0.70;0.70;;;;;;;29.83;35.69;99405.55;1853397;76;28082;-50
2022/07/12 13:13:18;;;;;;;2.20;0.70;;;;;;;29.86;35.64;99399.45;1862764;76;28078;-53
2022/07/12 13:16:07;;;;;;;0.70;0.70;;;;;;;29.87;35.66;99405.23;1860636;76;28075;-55
2022/07/12 13:18:56;;;;;;;0.55;0.55;;;;;;;29.85;35.66;99398.36;1857131;76;28158;-53
2022/07/12 13:21:44;;;;;;;0.60;0.60;;;;;;;29.86;35.63;99393.07;1851626;76;28087;-53
2022/07/12 13:24:33;;;;;;;1.32;0.78;;;;;;;29.85;35.67;99390.85;1864290;76;28118;-53
2022/07/12 13:27:21;;;;;;;0.73;0.73;;;;;;;29.82;35.68;99383.14;1860195;76;28003;-55
2022/07/12 13:30:12;;;;;;;1.25;0.70;;;;;;;29.86;35.70;99380.61;1856198;76;28087;-51
2022/07/12 13:33:00;;;;;;;0.60;0.60;;;;;;;29.86;35.64;99381.45;1850793;76;28033;-52